createdAt,value
2022-10-18T00:00:09.734Z,92.33
2022-10-18T00:02:37.693Z,92.07
2022-10-18T00:05:04.308Z,92.46
2022-10-18T00:07:31.146Z,92.55
2022-10-18T00:09:57.727Z,92.64
2022-10-18T00:12:24.184Z,92.77
2022-10-18T00:14:51.726Z,92.60
2022-10-18T00:17:18.188Z,92.47
2022-10-18T00:19:44.741Z,92.85
2022-10-18T00:22:11.159Z,92.55
2022-10-18T00:24:37.590Z,92.92
2022-10-18T00:27:04.111Z,92.86
2022-10-18T00:29:30.583Z,92.99
2022-10-18T00:31:57.069Z,93.11
2022-10-18T00:34:23.668Z,93.23
2022-10-18T00:36:50.352Z,92.83
2022-10-18T00:39:19.253Z,93.10
2022-10-18T00:41:46.237Z,93.06
2022-10-18T00:44:12.530Z,93.20
2022-10-18T00:46:43.929Z,92.99
2022-10-18T00:49:20.184Z,93.26
2022-10-18T00:52:14.889Z,93.50
2022-10-18T00:54:43.028Z,93.69
2022-10-18T00:57:10.052Z,93.89
2022-10-18T00:59:37.081Z,93.68
2022-10-18T01:02:03.639Z,93.94
2022-10-18T01:04:30.260Z,94.26
2022-10-18T01:07:06.810Z,94.27
2022-10-18T01:10:00.565Z,94.27
2022-10-18T01:12:49.669Z,94.21
2022-10-18T01:15:34.741Z,94.03
2022-10-18T01:18:16.504Z,93.95
2022-10-18T01:20:56.529Z,93.97
2022-10-18T01:23:51.147Z,94.13
2022-10-18T01:26:48.190Z,94.04
2022-10-18T01:29:42.346Z,94.18
2022-10-18T01:32:12.811Z,94.44
2022-10-18T01:34:40.165Z,94.70
2022-10-18T01:37:08.520Z,95.04
2022-10-18T01:39:37.291Z,95.04
2022-10-18T01:42:06.803Z,95.13
2022-10-18T01:44:33.427Z,95.28
2022-10-18T01:46:59.921Z,95.42
2022-10-18T01:49:26.940Z,95.31
2022-10-18T01:51:53.645Z,95.22
2022-10-18T01:54:27.811Z,95.23
2022-10-18T01:57:01.182Z,94.85
2022-10-18T01:59:47.229Z,94.74
2022-10-18T02:02:32.263Z,94.95
2022-10-18T02:05:35.909Z,94.42
2022-10-18T02:08:22.751Z,94.33
2022-10-18T02:11:01.206Z,94.03
2022-10-18T02:13:30.688Z,93.28
2022-10-18T02:16:01.389Z,93.39
2022-10-18T02:18:36.697Z,93.86
2022-10-18T02:21:05.532Z,94.04
2022-10-18T02:23:32.557Z,94.32
2022-10-18T02:25:58.940Z,94.46
2022-10-18T02:31:16.119Z,94.75
2022-10-18T02:33:59.143Z,94.58
2022-10-18T02:36:32.155Z,94.53
2022-10-18T02:39:03.407Z,94.57
2022-10-18T02:41:31.197Z,94.50
2022-10-18T02:43:57.933Z,94.58
2022-10-18T02:46:24.464Z,94.39
2022-10-18T02:48:50.943Z,94.40
2022-10-18T02:51:17.841Z,94.52
2022-10-18T02:53:44.264Z,94.30
2022-10-18T02:56:10.660Z,94.73
2022-10-18T02:58:37.052Z,94.67
2022-10-18T03:01:03.481Z,94.80
2022-10-18T03:03:29.951Z,94.66
2022-10-18T03:05:56.356Z,94.74
2022-10-18T03:08:22.829Z,94.81
2022-10-18T03:10:49.242Z,94.88
2022-10-18T03:13:15.866Z,95.06
2022-10-18T03:15:42.548Z,94.93
2022-10-18T03:18:09.034Z,95.02
2022-10-18T03:20:35.818Z,95.11
2022-10-18T03:23:03.201Z,95.07
2022-10-18T03:25:29.610Z,95.13
2022-10-18T03:27:56.021Z,95.29
2022-10-18T03:30:22.416Z,95.87
2022-10-18T03:32:48.807Z,96.14
2022-10-18T03:35:15.304Z,96.09
2022-10-18T03:37:41.764Z,96.28
2022-10-18T03:40:08.810Z,96.31
2022-10-18T03:42:35.342Z,96.29
2022-10-18T03:45:02.104Z,96.26
2022-10-18T03:47:28.532Z,95.99
2022-10-18T03:49:57.157Z,96.10
2022-10-18T03:52:23.912Z,95.61
2022-10-18T03:54:50.330Z,95.78
2022-10-18T03:57:16.745Z,95.75
2022-10-18T03:59:43.421Z,95.76
2022-10-18T04:02:09.856Z,95.82
2022-10-18T04:04:36.250Z,96.08
2022-10-18T04:07:02.658Z,95.90
2022-10-18T04:09:29.081Z,95.75
2022-10-18T04:11:55.483Z,95.75
2022-10-18T04:14:22.054Z,95.49
2022-10-18T04:16:48.725Z,95.78
2022-10-18T04:19:15.702Z,95.65
2022-10-18T04:21:42.221Z,95.81
2022-10-18T04:24:08.627Z,95.68
2022-10-18T04:26:35.026Z,95.53
2022-10-18T04:29:01.519Z,95.80
2022-10-18T04:31:27.944Z,95.53
2022-10-18T04:33:54.648Z,95.52
2022-10-18T04:36:21.076Z,95.41
2022-10-18T04:38:47.464Z,95.75
2022-10-18T04:41:13.897Z,95.67
2022-10-18T04:43:40.301Z,95.60
2022-10-18T04:46:06.724Z,95.66
2022-10-18T04:48:33.135Z,95.73
2022-10-18T04:50:59.728Z,95.63
2022-10-18T04:53:26.113Z,95.76
2022-10-18T04:55:52.583Z,95.57
2022-10-18T04:58:19.568Z,95.57
2022-10-18T05:00:47.589Z,95.51
2022-10-18T05:03:14.253Z,95.58
2022-10-18T05:06:00.264Z,95.54
2022-10-18T05:08:27.776Z,95.76
2022-10-18T05:10:54.297Z,95.53
2022-10-18T05:13:20.788Z,95.83
2022-10-18T05:15:47.484Z,95.88
2022-10-18T05:18:13.908Z,95.85
2022-10-18T05:20:40.313Z,95.90
2022-10-18T05:23:06.785Z,95.82
2022-10-18T05:25:33.193Z,95.37
2022-10-18T05:28:03.420Z,95.55
2022-10-18T05:30:40.977Z,95.37
2022-10-18T05:33:08.348Z,95.12
2022-10-18T05:35:35.053Z,95.27
2022-10-18T05:38:06.057Z,95.50
2022-10-18T05:40:33.466Z,95.69
2022-10-18T05:42:59.856Z,95.86
2022-10-18T05:45:26.260Z,95.76
2022-10-18T05:47:52.700Z,95.82
2022-10-18T05:50:19.082Z,95.39
2022-10-18T05:52:45.483Z,95.39
2022-10-18T05:55:11.905Z,95.49
2022-10-18T05:57:38.300Z,95.09
2022-10-18T06:00:07.413Z,95.18
2022-10-18T06:02:38.392Z,95.19
2022-10-18T06:05:05.086Z,95.25
2022-10-18T06:07:31.967Z,95.14
2022-10-18T06:09:58.508Z,94.82
2022-10-18T06:12:24.989Z,94.99
2022-10-18T06:14:51.424Z,94.57
2022-10-18T06:17:17.921Z,95.12
2022-10-18T06:19:44.795Z,95.07
2022-10-18T06:22:11.688Z,95.24
2022-10-18T06:24:38.184Z,95.46
2022-10-18T06:27:08.770Z,95.32
2022-10-18T06:29:39.368Z,95.37
2022-10-18T06:32:06.863Z,95.23
2022-10-18T06:34:33.990Z,95.17
2022-10-18T06:37:00.375Z,95.26
2022-10-18T06:39:27.104Z,94.94
2022-10-18T06:41:53.552Z,95.09
2022-10-18T06:44:20.788Z,95.29
2022-10-18T06:46:48.291Z,95.29
2022-10-18T06:49:18.953Z,95.06
2022-10-18T06:51:46.082Z,95.21
2022-10-18T06:54:18.451Z,95.40
2022-10-18T06:56:45.262Z,95.39
2022-10-18T06:59:11.811Z,95.38
2022-10-18T07:01:38.350Z,95.43
2022-10-18T07:04:04.816Z,95.33
2022-10-18T07:06:31.326Z,95.13
2022-10-18T07:08:57.789Z,95.22
2022-10-18T07:11:26.156Z,95.50
2022-10-18T07:13:54.357Z,95.80
2022-10-18T07:16:21.289Z,95.69
2022-10-18T07:18:49.804Z,95.81
2022-10-18T07:21:18.660Z,95.95
2022-10-18T07:23:48.427Z,96.00
2022-10-18T07:26:23.595Z,95.87
2022-10-18T07:28:57.877Z,95.77
2022-10-18T07:31:25.072Z,95.56
2022-10-18T07:33:51.744Z,95.41
2022-10-18T07:36:18.521Z,95.19
2022-10-18T07:38:44.919Z,95.26
2022-10-18T07:41:12.616Z,94.94
2022-10-18T07:43:46.305Z,94.63
2022-10-18T07:46:13.636Z,94.21
2022-10-18T07:48:40.143Z,93.90
2022-10-18T07:51:06.693Z,93.43
2022-10-18T07:53:34.466Z,93.22
2022-10-18T07:56:04.711Z,92.88
2022-10-18T07:58:34.313Z,92.42
2022-10-18T08:01:05.409Z,92.10
2022-10-18T08:03:32.353Z,91.55
2022-10-18T08:05:58.751Z,90.89
2022-10-18T08:08:25.874Z,90.28
2022-10-18T08:10:52.397Z,89.45
2022-10-18T08:13:18.771Z,89.15
2022-10-18T08:15:45.277Z,88.91
2022-10-18T08:18:11.924Z,88.76
2022-10-18T08:20:43.323Z,88.60
2022-10-18T08:23:09.873Z,88.30
2022-10-18T08:28:07.853Z,88.53
2022-10-18T08:30:35.193Z,88.66
2022-10-18T08:33:02.192Z,89.03
2022-10-18T08:35:28.662Z,88.70
2022-10-18T08:37:55.115Z,88.25
2022-10-18T08:40:21.508Z,88.40
2022-10-18T08:43:02.591Z,88.20
2022-10-18T08:45:41.823Z,88.14
2022-10-18T08:48:19.332Z,87.80
2022-10-18T08:50:46.056Z,88.05
2022-10-18T08:53:35.082Z,87.70
2022-10-18T08:56:11.113Z,87.78
2022-10-18T08:58:38.249Z,87.79
2022-10-18T09:01:13.744Z,87.98
2022-10-18T09:04:08.053Z,88.05
2022-10-18T09:06:43.358Z,87.77
2022-10-18T09:09:34.219Z,87.82
2022-10-18T09:12:25.738Z,87.56
2022-10-18T09:15:16.105Z,87.55
2022-10-18T09:17:56.750Z,87.13
2022-10-18T09:20:26.367Z,87.13
2022-10-18T09:23:05.576Z,86.68
2022-10-18T09:25:33.855Z,86.50
2022-10-18T09:28:16.424Z,85.98
2022-10-18T09:31:09.104Z,85.80
2022-10-18T09:33:46.557Z,85.94
2022-10-18T09:36:18.916Z,85.34
2022-10-18T09:38:48.425Z,85.51
2022-10-18T09:41:21.029Z,85.87
2022-10-18T09:43:53.671Z,85.57
2022-10-18T09:46:21.932Z,85.96
2022-10-18T09:48:56.021Z,85.85
2022-10-18T09:51:28.680Z,85.76
2022-10-18T09:54:34.548Z,85.58
2022-10-18T09:57:13.168Z,85.21
2022-10-18T09:59:42.379Z,85.45
2022-10-18T10:02:15.423Z,85.60
2022-10-18T10:04:41.916Z,85.23
2022-10-18T10:07:12.512Z,85.43
2022-10-18T10:10:11.894Z,84.98
2022-10-18T10:12:40.278Z,84.87
2022-10-18T10:15:29.700Z,85.26
2022-10-18T10:18:03.047Z,85.89
2022-10-18T10:20:35.552Z,85.16
2022-10-18T10:23:08.306Z,85.38
2022-10-18T10:25:37.858Z,85.44
2022-10-18T10:28:07.212Z,85.25
2022-10-18T10:30:38.713Z,85.45
2022-10-18T10:33:06.012Z,85.16
2022-10-18T10:38:24.831Z,85.59
2022-10-18T10:40:51.725Z,85.73
2022-10-18T10:43:39.249Z,85.83
2022-10-18T10:46:10.383Z,85.57
2022-10-18T10:48:46.623Z,85.86
2022-10-18T10:51:14.134Z,85.72
2022-10-18T10:54:05.372Z,86.15
2022-10-18T10:56:33.819Z,85.92
2022-10-18T10:59:08.654Z,86.08
2022-10-18T11:01:36.261Z,85.82
2022-10-18T11:04:23.395Z,85.82
2022-10-18T11:07:08.853Z,85.85
2022-10-18T11:09:50.420Z,85.48
2022-10-18T11:12:38.728Z,85.03
2022-10-18T11:15:14.423Z,85.32
2022-10-18T11:17:59.109Z,85.32
2022-10-18T11:20:48.402Z,85.04
2022-10-18T11:23:15.514Z,85.09
2022-10-18T11:25:53.813Z,85.25
2022-10-18T11:28:41.787Z,85.44
2022-10-18T11:31:24.818Z,85.73
2022-10-18T11:34:22.292Z,85.75
2022-10-18T11:37:15.598Z,85.76
2022-10-18T11:39:57.310Z,85.94
2022-10-18T11:42:39.062Z,86.11
2022-10-18T11:45:15.451Z,85.54
2022-10-18T11:47:53.589Z,85.05
2022-10-18T11:50:39.484Z,84.52
2022-10-18T11:53:21.136Z,84.85
2022-10-18T11:55:56.446Z,84.96
2022-10-18T11:58:34.979Z,84.71
2022-10-18T12:01:06.676Z,85.09
2022-10-18T12:03:49.631Z,84.93
2022-10-18T12:06:19.724Z,84.62
2022-10-18T12:08:49.035Z,84.66
2022-10-18T12:11:22.652Z,84.76
2022-10-18T12:14:04.980Z,84.59
2022-10-18T12:16:58.411Z,84.42
2022-10-18T12:19:27.157Z,84.77
2022-10-18T12:21:58.188Z,84.90
2022-10-18T12:24:28.759Z,84.81
2022-10-18T12:26:58.503Z,84.87
2022-10-18T12:29:32.148Z,84.84
2022-10-18T12:32:06.140Z,85.02
2022-10-18T12:34:41.428Z,84.85
2022-10-18T12:37:36.030Z,85.14
2022-10-18T12:40:16.781Z,85.20
2022-10-18T12:42:47.465Z,85.46
2022-10-18T12:45:13.781Z,85.64
2022-10-18T12:47:40.431Z,85.54
2022-10-18T12:50:23.166Z,85.64
2022-10-18T12:53:03.642Z,85.43
2022-10-18T12:55:39.032Z,85.79
2022-10-18T12:58:30.108Z,85.42
2022-10-18T13:00:58.528Z,85.33
2022-10-18T13:03:24.792Z,85.37
2022-10-18T13:05:56.524Z,84.77
2022-10-18T13:08:29.083Z,84.38
2022-10-18T13:11:29.432Z,84.03
2022-10-18T13:14:21.748Z,82.85
2022-10-18T13:17:01.315Z,81.90
2022-10-18T13:19:58.112Z,80.36
2022-10-18T13:22:54.480Z,80.07
2022-10-18T13:25:28.495Z,80.33
2022-10-18T13:28:19.746Z,79.64
2022-10-18T13:30:58.002Z,78.78
2022-10-18T13:33:41.335Z,78.60
2022-10-18T13:36:21.759Z,78.17
2022-10-18T13:38:57.083Z,78.05
2022-10-18T13:41:26.824Z,77.43
2022-10-18T13:43:57.829Z,77.87
2022-10-18T13:46:33.246Z,77.63
2022-10-18T13:49:20.016Z,78.05
2022-10-18T13:52:05.738Z,77.99
2022-10-18T13:54:50.995Z,78.13
2022-10-18T13:57:38.944Z,78.80
2022-10-18T14:00:08.346Z,78.93
2022-10-18T14:02:52.031Z,79.35
2022-10-18T14:05:51.232Z,79.60
2022-10-18T14:08:22.625Z,79.23
2022-10-18T14:11:02.438Z,79.76
2022-10-18T14:14:18.795Z,79.93
2022-10-18T14:17:05.553Z,80.04
2022-10-18T14:19:39.294Z,80.74
2022-10-18T14:22:20.480Z,80.43
2022-10-18T14:24:50.904Z,80.91
2022-10-18T14:27:22.646Z,80.70
2022-10-18T14:29:50.697Z,81.21
2022-10-18T14:32:27.491Z,81.05
2022-10-18T14:35:09.225Z,81.31
2022-10-18T14:37:41.064Z,81.34
2022-10-18T14:40:35.429Z,81.41
2022-10-18T14:43:03.943Z,81.67
2022-10-18T14:45:30.332Z,81.75
2022-10-18T14:48:14.471Z,82.18
2022-10-18T14:50:42.184Z,82.76
2022-10-18T14:53:15.346Z,82.75
2022-10-18T14:55:42.941Z,82.97
2022-10-18T14:58:15.071Z,83.09
2022-10-18T15:00:43.913Z,83.03
2022-10-18T15:03:14.605Z,84.02
2022-10-18T15:05:59.725Z,84.81
2022-10-18T15:08:42.350Z,85.57
2022-10-18T15:11:11.988Z,86.24
2022-10-18T15:13:50.465Z,86.62
2022-10-18T15:16:18.818Z,87.36
2022-10-18T15:18:59.865Z,87.92
2022-10-18T15:21:26.732Z,88.61
2022-10-18T15:23:54.838Z,89.24
2022-10-18T15:26:24.120Z,89.52
2022-10-18T15:28:52.848Z,90.11
2022-10-18T15:31:30.981Z,90.28
2022-10-18T15:34:26.832Z,90.87
2022-10-18T15:36:56.939Z,90.53
2022-10-18T15:39:26.025Z,90.92
2022-10-18T15:42:02.888Z,90.96
2022-10-18T15:44:34.511Z,91.07
2022-10-18T15:47:13.164Z,90.85
2022-10-18T15:49:45.532Z,91.14
2022-10-18T15:52:37.718Z,91.28
2022-10-18T15:55:30.976Z,91.76
2022-10-18T15:58:04.967Z,91.75
2022-10-18T16:00:31.407Z,91.50
2022-10-18T16:02:57.800Z,92.03
2022-10-18T16:05:25.614Z,91.61
2022-10-18T16:07:52.482Z,91.95
2022-10-18T16:10:18.916Z,91.84
2022-10-18T16:12:45.381Z,92.02
2022-10-18T16:15:11.937Z,92.06
2022-10-18T16:17:38.347Z,91.87
2022-10-18T16:20:05.357Z,92.10
2022-10-18T16:22:34.712Z,91.94
2022-10-18T16:25:03.563Z,92.27
2022-10-18T16:27:30.124Z,92.44
2022-10-18T16:29:56.560Z,92.45
2022-10-18T16:32:22.957Z,92.38
2022-10-18T16:34:49.341Z,92.47
2022-10-18T16:37:15.879Z,92.42
2022-10-18T16:39:42.296Z,92.62
2022-10-18T16:42:08.696Z,92.56
2022-10-18T16:44:35.079Z,92.52
2022-10-18T16:47:01.615Z,92.78
2022-10-18T16:49:28.024Z,92.76
2022-10-18T16:55:00.790Z,92.72
2022-10-18T16:57:28.321Z,92.87
2022-10-18T16:59:54.783Z,92.87
2022-10-18T17:02:21.216Z,93.42
2022-10-18T17:04:47.604Z,93.64
2022-10-18T17:09:48.504Z,94.20
2022-10-18T17:12:14.883Z,94.15
2022-10-18T17:14:41.313Z,94.45
2022-10-18T17:17:11.924Z,94.45
2022-10-18T17:19:38.333Z,94.42
2022-10-18T17:22:04.733Z,94.88
2022-10-18T17:24:31.159Z,94.69
2022-10-18T17:26:57.660Z,94.57
2022-10-18T17:29:24.034Z,94.63
2022-10-18T17:31:50.435Z,94.69
2022-10-18T17:34:21.169Z,94.72
2022-10-18T17:36:47.895Z,95.28
2022-10-18T17:39:14.281Z,95.42
2022-10-18T17:41:40.671Z,95.50
2022-10-18T17:44:07.401Z,95.71
2022-10-18T17:46:33.850Z,95.55
2022-10-18T17:49:00.268Z,95.84
2022-10-18T17:51:26.825Z,95.88
2022-10-18T17:53:53.992Z,96.03
2022-10-18T17:56:20.400Z,95.80
2022-10-18T17:58:50.834Z,95.75
2022-10-18T18:01:19.519Z,95.82
2022-10-18T18:03:49.344Z,96.03
2022-10-18T18:06:30.495Z,95.88
2022-10-18T18:09:04.641Z,95.96
2022-10-18T18:11:31.082Z,95.84
2022-10-18T18:13:57.825Z,95.84
2022-10-18T18:16:26.289Z,95.56
2022-10-18T18:18:54.597Z,95.61
2022-10-18T18:21:21.762Z,95.63
2022-10-18T18:23:48.588Z,95.84
2022-10-18T18:26:17.244Z,95.96
2022-10-18T18:28:43.939Z,95.52
2022-10-18T18:31:23.385Z,95.54
2022-10-18T18:33:51.385Z,95.68
2022-10-18T18:36:18.142Z,95.31
2022-10-18T18:38:44.631Z,95.58
2022-10-18T18:41:13.732Z,95.70
2022-10-18T18:43:45.599Z,95.74
2022-10-18T18:46:12.857Z,95.91
2022-10-18T18:48:39.446Z,95.97
2022-10-18T18:51:09.296Z,96.20
2022-10-18T18:53:35.696Z,96.42
2022-10-18T18:56:07.391Z,96.25
2022-10-18T18:58:35.068Z,96.25
2022-10-18T19:01:09.780Z,96.27
2022-10-18T19:03:38.409Z,96.60
2022-10-18T19:06:07.080Z,96.38
2022-10-18T19:08:37.629Z,96.63
2022-10-18T19:11:08.955Z,96.34
2022-10-18T19:13:36.156Z,96.39
2022-10-18T19:16:28.439Z,96.67
2022-10-18T19:19:01.796Z,96.58
2022-10-18T19:21:30.413Z,96.38
2022-10-18T19:23:57.698Z,96.77
2022-10-18T19:26:30.776Z,96.70
2022-10-18T19:29:10.749Z,96.88
2022-10-18T19:31:38.116Z,96.74
2022-10-18T19:34:07.663Z,96.85
2022-10-18T19:36:34.455Z,96.97
2022-10-18T19:39:00.960Z,96.58
2022-10-18T19:41:28.423Z,96.71
2022-10-18T19:43:55.927Z,96.99
2022-10-18T19:46:22.630Z,96.95
2022-10-18T19:48:49.281Z,96.79
2022-10-18T19:51:19.514Z,96.76
2022-10-18T19:53:49.369Z,97.05
2022-10-18T19:56:21.213Z,97.08
2022-10-18T19:58:47.780Z,97.39
2022-10-18T20:01:14.493Z,97.32
2022-10-18T20:03:41.174Z,97.53
2022-10-18T20:06:07.781Z,97.52
2022-10-18T20:08:35.259Z,97.69
2022-10-18T20:11:06.292Z,97.73
2022-10-18T20:13:33.258Z,97.94
2022-10-18T20:16:00.036Z,97.96
2022-10-18T20:18:26.522Z,98.16
2022-10-18T20:20:53.140Z,98.28
2022-10-18T20:23:19.950Z,98.26
2022-10-18T20:26:20.789Z,98.28
2022-10-18T20:28:49.301Z,98.16
2022-10-18T20:31:19.348Z,97.74
2022-10-18T20:33:46.952Z,97.80
2022-10-18T20:36:15.372Z,97.98
2022-10-18T20:38:43.184Z,98.06
2022-10-18T20:41:13.602Z,97.80
2022-10-18T20:43:40.399Z,98.11
2022-10-18T20:46:07.676Z,98.08
2022-10-18T20:48:35.347Z,98.10
2022-10-18T20:51:14.420Z,97.80
2022-10-18T20:53:41.152Z,98.08
2022-10-18T20:56:08.709Z,98.25
2022-10-18T20:58:36.048Z,98.22
2022-10-18T21:01:06.657Z,98.29
2022-10-18T21:03:33.431Z,98.50
2022-10-18T21:06:02.092Z,98.82
2022-10-18T21:08:29.083Z,98.76
2022-10-18T21:10:55.650Z,98.75
2022-10-18T21:13:22.152Z,98.61
2022-10-18T21:15:54.689Z,98.25
2022-10-18T21:18:26.155Z,98.50
2022-10-18T21:20:52.740Z,98.71
2022-10-18T21:23:19.839Z,98.28
2022-10-18T21:25:49.586Z,98.29
2022-10-18T21:28:16.697Z,98.36
2022-10-18T21:30:43.088Z,98.52
2022-10-18T21:33:09.509Z,98.33
2022-10-18T21:35:37.142Z,98.58
2022-10-18T21:38:04.779Z,98.52
2022-10-18T21:40:32.069Z,98.39
2022-10-18T21:42:58.478Z,98.49
2022-10-18T21:45:24.916Z,98.67
2022-10-18T21:47:51.290Z,98.65
2022-10-18T21:50:17.707Z,98.48
2022-10-18T21:52:44.141Z,98.80
2022-10-18T21:55:10.607Z,98.86
2022-10-18T22:00:08.840Z,98.83
2022-10-18T22:02:35.441Z,98.68
2022-10-18T22:05:02.059Z,98.60
2022-10-18T22:07:28.509Z,98.43
2022-10-18T22:09:54.986Z,98.55
2022-10-18T22:12:21.387Z,98.38
2022-10-18T22:14:47.814Z,98.31
2022-10-18T22:17:14.269Z,98.79
2022-10-18T22:19:40.732Z,98.59
2022-10-18T22:22:07.145Z,98.47
2022-10-18T22:24:33.519Z,98.79
2022-10-18T22:26:59.913Z,98.67
2022-10-18T22:29:26.373Z,98.79
2022-10-18T22:31:53.898Z,98.57
2022-10-18T22:34:23.471Z,98.68
2022-10-18T22:36:50.196Z,98.64
2022-10-18T22:39:16.933Z,99.07
2022-10-18T22:41:43.691Z,99.27
2022-10-18T22:44:13.704Z,99.44
2022-10-18T22:46:41.113Z,99.63
2022-10-18T22:49:07.858Z,99.90
2022-10-18T22:54:03.256Z,99.78
2022-10-18T22:56:30.095Z,99.75
2022-10-18T22:58:56.481Z,100.00
2022-10-18T23:01:23.453Z,99.66
2022-10-18T23:03:57.241Z,99.51
2022-10-18T23:06:25.607Z,99.25
2022-10-18T23:08:53.314Z,99.36
2022-10-18T23:11:20.411Z,99.13
2022-10-18T23:13:47.177Z,98.88
2022-10-18T23:16:13.844Z,98.91
2022-10-18T23:18:40.407Z,98.74
2022-10-18T23:21:09.423Z,98.76
2022-10-18T23:23:37.848Z,98.64
2022-10-18T23:26:06.511Z,98.74
2022-10-18T23:28:35.382Z,98.75
2022-10-18T23:31:09.777Z,98.58
2022-10-18T23:33:36.528Z,98.67
2022-10-18T23:36:04.166Z,98.37
2022-10-18T23:38:31.206Z,98.29
2022-10-18T23:40:57.994Z,98.12
2022-10-18T23:43:24.423Z,98.35
2022-10-18T23:45:51.105Z,98.43
2022-10-18T23:48:17.645Z,98.60
2022-10-18T23:50:44.250Z,98.98
2022-10-18T23:53:10.677Z,99.29
2022-10-18T23:55:37.090Z,99.36
2022-10-18T23:58:03.567Z,99.53
